Terminal Aerodrome Forecast
Issued by NWS Cleveland, OH

Home | Current Version | Previous Version | Graphics & Text | Print | Product List | Glossary On
Versions: 1 2 3 4 5 6 7 8 9 10 11 12 13 14 15 16 17 18
000
FTUS41 KCLE 201140
TAFCAK
TAF
KCAK 201140Z 2012/2112 25007KT P6SM SCT100
     FM201600 26012G20KT P6SM SCT050 BKN250
     FM202300 26007KT P6SM SCT050 BKN150
     FM210800 23004KT P6SM BKN060=

USA.gov is the U.S. government's official web portal to all federal, state and local government web resources and services.